Aérodrome :
LOGIN :

S'inscrire | Disclaimer

   EN    FR    IT 

 










Légende :    VFR   VFR Marginal   IFR   IFR Intensif   IFR Très Intensif
Visi : 
Plafond : 
>= 8 km
>= 3000ft
5 à 8 km
1000 à 3000 ft
1500m à 5 km
500 à 1000 ft
800 à 1500m
200 à 500 ft
< 800m
< 200 ft
Symboles :   Orages  Brouillard  Fortes neiges  Fortes précipitations  Vent > 20 kt
SIGMETs :   Divers  Orages  Givrage  Turbulence  Onde Orograph.  Cendres Volcan.







- Altitude de l'aérodrome : 102 ft
- Code IATA : CNG
- Voir les cartes d'approche


LFBG - Cognac

DERNIER METAR :
  • 181100Z AUTO 15009KT CAVOK 22/14 Q1011 NOSIG

METARs EXPIRÉS :
  • 181030Z AUTO 14011KT CAVOK 22/14 Q1011 NOSIG
  • 181000Z AUTO 15012KT CAVOK 21/14 Q1011 NOSIG
  • 180930Z AUTO 15012KT CAVOK 20/14 Q1011 NOSIG
  • 180900Z AUTO 14010KT CAVOK 19/14 Q1012 NOSIG
  • 180830Z AUTO 12005KT CAVOK 18/14 Q1012 NOSIG

TAF TAF LFBG
Valide du 18 à 09h jusqu'au 19 à 09h UTC


180800Z 1809/1909 14014KT CAVOK
TEMPO 1816/1820 VRB15G25KT 4000 SHRA BKN050CB
BECMG 1820/1822 3000 RADZ BKN005
Pas de NOTAMs connus pour ce terrain.
1 SIGMET publié pour la FIR Bordeaux (LFBB) :
 
Orages noyés dans la masse
LFBB SIGMET 1 VALID 181100/181300 LFPW
LFBB BORDEAUX FIR/UIR EMBD TS OBS AT 1100Z S OF N4245 AND W OF E00145 TOP FL360 MOV NE 5KT NC=



MET'MAP, la Météo Aéronautique d'un coup d'oeil ! - Copyright ORBIFLY Décembre 2007 - Disclaimer

ORBIFLY MET'MAP TEAM :

Programmation & Développement : Alexandra Zaïnal
Conception & Développement : Baudouin d'Aumeries
Co-Programmation & Développement : Marc-Olivier Méhu
Soutien technique & logistique : Manuel Goepfert

Contact : metmap@orbifly.com




SOURCES & CREDITS :

   NOAA